Atlantic Griffon — XKBW — position and weather

sailwx.info

Track history (hours):
 
Tides and Currents Weather Stations Pressure Air Temp Water Temp Dewpoint Dewpoint Depression Visibility Wind Speed Wind Dir Waves Ship Positions

Atlantic Griffon

Last reported at 2018-Aug-13 18:47 UTC. Time now 2018-Aug-14 13:46 UTC.
Position N 47°29' W 052°16'.

Length 86 m; draft 6 m.

Type: Ship. MMSI: 316013910.

Date/timePositionNaut miles runAvg speedWind from/ knotsBaromVisibWave heightAir tempDewpointWater temp
2018-Aug-13 18:47N 47°29' W 052°16'412.7
2018-Aug-13 18:29N 47°30' W 052°21'712.9
2018-Aug-13 17:58N 47°32' W 052°31'612.1
2018-Aug-13 17:28N 47°34' W 052°40'2 3.4
2018-Aug-13 16:57N 47°34' W 052°42'0 0.0
2018-Aug-13 16:30N 47°34' W 052°42'0 0.0
2018-Aug-13 15:55N 47°34' W 052°42'0 0.0
2018-Aug-13 15:26N 47°34' W 052°42'0 0.0
2018-Aug-13 15:00N 47°34' W 052°42'0 0.0
2018-Aug-13 14:29N 47°34' W 052°42'0 0.0
2018-Aug-13 13:58N 47°34' W 052°42'0 0.0
2018-Aug-13 13:26N 47°34' W 052°42'0 0.0
2018-Aug-13 12:57N 47°34' W 052°42'0 0.0
2018-Aug-13 12:26N 47°34' W 052°42'0 0.0
2018-Aug-13 11:56N 47°34' W 052°42'0 0.0
2018-Aug-13 11:28N 47°34' W 052°42'0 0.0
2018-Aug-13 10:59N 47°34' W 052°42'0 0.0
2018-Aug-13 10:29N 47°34' W 052°42'0 0.0
2018-Aug-13 09:58N 47°34' W 052°42'0 0.0
2018-Aug-13 09:28N 47°34' W 052°42'0 0.0
2018-Aug-13 08:53N 47°34' W 052°42'0 0.0
2018-Aug-13 08:27N 47°34' W 052°42'0 0.0
2018-Aug-13 07:56N 47°34' W 052°42'0 0.0
2018-Aug-13 07:26N 47°34' W 052°42'0 0.0
2018-Aug-13 07:00N 47°34' W 052°42'0 0.0
2018-Aug-13 06:29N 47°34' W 052°42'0 0.0
2018-Aug-13 05:59N 47°34' W 052°42'0 0.0
2018-Aug-13 05:28N 47°34' W 052°42'0 0.0
2018-Aug-13 04:57N 47°34' W 052°42'0 0.0
2018-Aug-13 04:26N 47°34' W 052°42'0 0.0
2018-Aug-13 03:56N 47°34' W 052°42'0 0.0
2018-Aug-13 03:30N 47°34' W 052°42'0 0.0
2018-Aug-13 02:59N 47°34' W 052°42'0 0.0
2018-Aug-13 02:29N 47°34' W 052°42'0 0.0
2018-Aug-13 01:58N 47°34' W 052°42'0 0.0
2018-Aug-13 01:22N 47°34' W 052°42'0 0.0
2018-Aug-13 00:57N 47°34' W 052°42'0 0.0
2018-Aug-13 00:26N 47°34' W 052°42'0 0.0
2018-Aug-12 23:59N 47°34' W 052°42'0 0.0
2018-Aug-12 23:28N 47°34' W 052°42'0 0.0
2018-Aug-12 22:57N 47°34' W 052°42'0 0.0
2018-Aug-12 22:27N 47°34' W 052°42'0 0.0
2018-Aug-12 21:56N 47°34' W 052°42'0 0.0
2018-Aug-12 21:30N 47°34' W 052°42'0 0.0
2018-Aug-12 21:00N 47°34' W 052°42'0 0.0
2018-Aug-12 20:28N 47°34' W 052°42'0 0.0
2018-Aug-12 19:56N 47°34' W 052°42'0 0.0
2018-Aug-12 19:30N 47°34' W 052°42'0 0.0
2018-Aug-12 18:59N 47°34' W 052°42'0 0.0
2018-Aug-12 18:28N 47°34' W 052°42'0 0.0
2018-Aug-12 17:57N 47°34' W 052°42'0 0.0
2018-Aug-12 17:26N 47°34' W 052°42'0 0.0
2018-Aug-12 17:00N 47°34' W 052°42'0 0.0
2018-Aug-12 16:28N 47°34' W 052°42'0 0.0
2018-Aug-12 15:57N 47°34' W 052°42'0 0.0
2018-Aug-12 15:30N 47°34' W 052°42'0 0.0
2018-Aug-12 14:59N 47°34' W 052°42'0 0.0
2018-Aug-12 10:49N 47°34' W 052°42'0 0.1
2018-Aug-12 10:30N 47°34' W 052°42'3 5.9
2018-Aug-12 09:58N 47°34' W 052°37'611.9
2018-Aug-12 09:28N 47°31' W 052°29'  
2018-Aug-09 01:25N 47°27' W 052°10'511.8
2018-Aug-09 00:58N 47°29' W 052°18'611.5
2018-Aug-09 00:26N 47°31' W 052°26'511.2
2018-Aug-09 00:00N 47°33' W 052°33'5 9.9
2018-Aug-08 23:30N 47°34' W 052°40'1 2.5
2018-Aug-08 22:59N 47°34' W 052°42'0 0.0
2018-Aug-08 22:27N 47°34' W 052°42'0 0.0
2018-Aug-08 21:56N 47°34' W 052°42'0 0.0
2018-Aug-08 21:29N 47°34' W 052°42'0 0.0
2018-Aug-08 20:57N 47°34' W 052°42'0 0.0
2018-Aug-08 20:29N 47°34' W 052°42'0 0.0
2018-Aug-08 19:56N 47°34' W 052°42'0 0.0
2018-Aug-08 19:26N 47°34' W 052°42'0 0.0
2018-Aug-08 18:57N 47°34' W 052°42'0 0.0
2018-Aug-08 18:26N 47°34' W 052°42'0 0.0
2018-Aug-08 17:58N 47°34' W 052°42'0 0.0
2018-Aug-08 17:27N 47°34' W 052°42'0 0.0
2018-Aug-08 16:47N 47°34' W 052°42'0 0.0
2018-Aug-08 16:27N 47°34' W 052°42'0 0.0
2018-Aug-08 15:55N 47°34' W 052°42'0 0.0
2018-Aug-08 15:29N 47°34' W 052°42'0 0.0
2018-Aug-08 14:58N 47°34' W 052°42'0 0.0
2018-Aug-08 14:28N 47°34' W 052°42'0 0.0
2018-Aug-08 13:56N 47°34' W 052°42'0 0.0
2018-Aug-08 13:25N 47°34' W 052°42'0 0.0
2018-Aug-08 13:00N 47°34' W 052°42'0 0.0
2018-Aug-08 12:29N 47°34' W 052°42'0 0.0
2018-Aug-08 11:48N 47°34' W 052°42'0 0.0
2018-Aug-08 11:28N 47°34' W 052°42'0 0.0
2018-Aug-08 10:57N 47°34' W 052°42'0 0.0
2018-Aug-08 10:26N 47°34' W 052°42'0 0.0
2018-Aug-08 09:59N 47°34' W 052°42'0 0.0
2018-Aug-08 09:28N 47°34' W 052°42'0 0.0
2018-Aug-08 08:57N 47°34' W 052°42'0 0.0
2018-Aug-08 08:26N 47°34' W 052°42'0 0.0
2018-Aug-08 07:56N 47°34' W 052°42'0 0.0
2018-Aug-08 07:30N 47°34' W 052°42'0 0.0
2018-Aug-08 07:00N 47°34' W 052°42'0 0.0
2018-Aug-08 06:29N 47°34' W 052°42'0 0.0
2018-Aug-08 05:59N 47°34' W 052°42'0 0.0
2018-Aug-08 05:28N 47°34' W 052°42'0 0.0
2018-Aug-08 04:58N 47°34' W 052°42'0 0.0
2018-Aug-08 04:27N 47°34' W 052°42'0 0.0
2018-Aug-08 03:56N 47°34' W 052°42'0 0.0
2018-Aug-08 03:26N 47°34' W 052°42'0 0.0
2018-Aug-08 03:00N 47°34' W 052°42'0 0.0
2018-Aug-08 02:30N 47°34' W 052°42'0 0.0
2018-Aug-08 01:59N 47°34' W 052°42'0 0.0
2018-Aug-08 01:28N 47°34' W 052°42'0 0.0
2018-Aug-08 00:57N 47°34' W 052°42'0 0.1
2018-Aug-08 00:25N 47°34' W 052°42'3 6.6
2018-Aug-07 23:59N 47°34' W 052°38'612.2
2018-Aug-07 23:29N 47°33' W 052°29'52 2.1
2018-Aug-06 23:23N 47°14' W 051°17'5213.3
2018-Aug-06 19:27N 47°32' W 052°30'712.6
2018-Aug-06 18:55N 47°34' W 052°40'2 4.0
2018-Aug-06 18:30N 47°34' W 052°42'0 0.0
2018-Aug-06 17:59N 47°34' W 052°42'0 0.0
2018-Aug-06 17:29N 47°34' W 052°42'0 0.0
2018-Aug-06 16:58N 47°34' W 052°42'0 0.0
2018-Aug-06 16:28N 47°34' W 052°42'0 0.0
2018-Aug-06 15:57N 47°34' W 052°42'0 0.0
2018-Aug-06 15:26N 47°34' W 052°42'0 0.4
2018-Aug-06 14:59N 47°34' W 052°42'0 0.0
2018-Aug-06 14:28N 47°34' W 052°42'0 0.0
2018-Aug-06 13:58N 47°34' W 052°42'0 0.0
2018-Aug-06 13:27N 47°34' W 052°42'0 0.0
2018-Aug-06 12:57N 47°34' W 052°42'0 0.0
2018-Aug-06 12:26N 47°34' W 052°42'0 0.0
2018-Aug-06 11:59N 47°34' W 052°42'0 0.0
2018-Aug-06 11:29N 47°34' W 052°42'0 0.0
2018-Aug-06 10:56N 47°34' W 052°42'0 0.0
2018-Aug-06 10:28N 47°34' W 052°42'0 0.0
2018-Aug-06 09:57N 47°34' W 052°42'0 0.0
2018-Aug-06 09:30N 47°34' W 052°42'0 0.0
2018-Aug-06 08:55N 47°34' W 052°42'0 0.0
2018-Aug-06 08:29N 47°34' W 052°42'0 0.0
2018-Aug-06 07:59N 47°34' W 052°42'0 0.0
2018-Aug-06 07:18N 47°34' W 052°42'0 0.0
2018-Aug-06 06:58N 47°34' W 052°42'0 0.0
2018-Aug-06 06:27N 47°34' W 052°42'0 0.0
2018-Aug-06 05:57N 47°34' W 052°42'0 0.0
2018-Aug-06 05:26N 47°34' W 052°42'0 0.0
2018-Aug-06 05:00N 47°34' W 052°42'0 0.0
2018-Aug-06 04:30N 47°34' W 052°42'0 0.0
2018-Aug-06 04:00N 47°34' W 052°42'0 0.0
2018-Aug-06 03:30N 47°34' W 052°42'0 0.0
2018-Aug-06 03:00N 47°34' W 052°42'0 0.0
2018-Aug-06 02:29N 47°34' W 052°42'0 0.0
2018-Aug-06 01:59N 47°34' W 052°42'0 0.0
2018-Aug-06 01:28N 47°34' W 052°42'0 0.0
2018-Aug-06 00:58N 47°34' W 052°42'0 0.0
2018-Aug-06 00:27N 47°34' W 052°42'0 0.0
2018-Aug-05 23:56N 47°34' W 052°42'0 0.0
2018-Aug-05 23:26N 47°34' W 052°42'0 0.0
2018-Aug-05 23:00N 47°34' W 052°42'0 0.0
2018-Aug-05 22:29N 47°34' W 052°42'0 0.0
2018-Aug-05 21:59N 47°34' W 052°42'0 0.0
2018-Aug-05 21:19N 47°34' W 052°42'0 0.0
2018-Aug-05 20:59N 47°34' W 052°42'0 0.0
2018-Aug-05 20:28N 47°34' W 052°42'0 0.0
2018-Aug-05 19:57N 47°34' W 052°42'0 0.0
2018-Aug-05 19:26N 47°34' W 052°42'0 0.0
2018-Aug-05 19:00N 47°34' W 052°42'0 0.0
2018-Aug-05 18:29N 47°34' W 052°42'0 0.0
2018-Aug-05 17:58N 47°34' W 052°42'0 0.0
2018-Aug-05 17:28N 47°34' W 052°42'0 0.5
2018-Aug-05 16:58N 47°34' W 052°42'0 0.0
2018-Aug-05 16:27N 47°34' W 052°42'0 0.0
2018-Aug-05 15:57N 47°34' W 052°42'0 0.0
2018-Aug-05 15:30N 47°34' W 052°42'0 0.0
2018-Aug-05 14:59N 47°34' W 052°42'0 0.0
2018-Aug-05 14:26N 47°34' W 052°42'0 0.0
2018-Aug-05 13:30N 47°34' W 052°42'0 0.0
2018-Aug-05 12:59N 47°34' W 052°42'0 0.0
2018-Aug-05 12:29N 47°34' W 052°42'0 0.0
2018-Aug-05 11:58N 47°34' W 052°42'0 0.0
2018-Aug-05 11:28N 47°34' W 052°42'0 0.0
2018-Aug-05 10:58N 47°34' W 052°42'0 0.0
2018-Aug-05 10:28N 47°34' W 052°42'0 0.1
2018-Aug-05 09:57N 47°34' W 052°42'0 0.8
2018-Aug-05 09:26N 47°34' W 052°42'0 0.0
2018-Aug-05 08:56N 47°34' W 052°42'0 0.0
2018-Aug-05 08:30N 47°34' W 052°42'0 0.0
2018-Aug-05 08:00N 47°34' W 052°42'0 0.0
2018-Aug-05 07:28N 47°34' W 052°42'0 0.0
2018-Aug-05 06:58N 47°34' W 052°42'0 0.0
2018-Aug-05 06:27N 47°34' W 052°42'0 0.0
2018-Aug-05 05:57N 47°34' W 052°42'0 0.0
2018-Aug-05 05:26N 47°34' W 052°42'0 0.0
2018-Aug-05 04:56N 47°34' W 052°42'0 0.0
2018-Aug-05 04:30N 47°34' W 052°42'0 0.0
2018-Aug-05 03:58N 47°34' W 052°42'0 0.0
2018-Aug-05 03:27N 47°34' W 052°42'0 0.0
2018-Aug-05 02:56N 47°34' W 052°42'0 0.0
2018-Aug-05 02:25N 47°34' W 052°42'0 0.0
2018-Aug-05 02:00N 47°34' W 052°42'0 0.0
2018-Aug-05 01:30N 47°34' W 052°42'0 0.0
2018-Aug-05 00:59N 47°34' W 052°42'0 0.0
2018-Aug-05 00:29N 47°34' W 052°42'0 0.0
2018-Aug-04 23:58N 47°34' W 052°42'0 0.0
2018-Aug-04 23:27N 47°34' W 052°42'0 0.0
2018-Aug-04 22:57N 47°34' W 052°42'0 0.0
2018-Aug-04 22:26N 47°34' W 052°42'0 0.0
2018-Aug-04 22:00N 47°34' W 052°42'0 0.0
2018-Aug-04 21:27N 47°34' W 052°42'0 0.0
2018-Aug-04 20:56N 47°34' W 052°42'0 0.0
2018-Aug-04 20:27N 47°34' W 052°42'0 0.0
2018-Aug-04 20:00N 47°34' W 052°42'0 0.0
2018-Aug-04 19:29N 47°34' W 052°42'0 0.0
2018-Aug-04 18:57N 47°34' W 052°42'0 0.0
2018-Aug-04 18:26N 47°34' W 052°42'0 0.0
2018-Aug-04 18:00N 47°34' W 052°42'0 0.0
2018-Aug-04 17:18N 47°34' W 052°42'0 0.0
2018-Aug-04 16:57N 47°34' W 052°42'0 0.0
2018-Aug-04 16:29N 47°34' W 052°42'0 0.0
2018-Aug-04 15:57N 47°34' W 052°42'0 0.0
2018-Aug-04 15:30N 47°34' W 052°42'0 0.0
2018-Aug-04 15:00N 47°34' W 052°42'0 0.0
2018-Aug-04 14:27N 47°34' W 052°42'0 0.4
2018-Aug-04 13:56N 47°34' W 052°42'0 0.2
2018-Aug-04 13:30N 47°34' W 052°42'0 0.0
2018-Aug-04 12:55N 47°34' W 052°42'0 0.0
2018-Aug-04 12:27N 47°34' W 052°42'0 0.0
2018-Aug-04 11:52N 47°34' W 052°42'0 0.0
2018-Aug-04 11:28N 47°34' W 052°42'0 0.0
2018-Aug-04 10:59N 47°34' W 052°42'0 0.0
2018-Aug-04 10:28N 47°34' W 052°42'0 0.0
2018-Aug-04 09:59N 47°34' W 052°42'0 0.0
2018-Aug-04 09:25N 47°34' W 052°42'0 0.0
2018-Aug-04 09:00N 47°34' W 052°42'0 0.0
2018-Aug-04 08:28N 47°34' W 052°42'0 0.0
2018-Aug-04 07:56N 47°34' W 052°42'0 0.0
2018-Aug-04 07:29N 47°34' W 052°42'0 0.0
2018-Aug-04 06:58N 47°34' W 052°42'0 0.0
2018-Aug-04 06:26N 47°34' W 052°42'0 0.0
2018-Aug-04 06:00N 47°34' W 052°42'0 0.0
2018-Aug-04 05:28N 47°34' W 052°42'0 0.0
2018-Aug-04 04:57N 47°34' W 052°42'0 0.0
2018-Aug-04 04:30N 47°34' W 052°42'0 0.0
2018-Aug-04 03:58N 47°34' W 052°42'0 0.0
2018-Aug-04 03:28N 47°34' W 052°42'0 0.0
2018-Aug-04 02:58N 47°34' W 052°42'0 0.0
2018-Aug-04 02:26N 47°34' W 052°42'0 0.0
2018-Aug-04 01:56N 47°34' W 052°42'0 0.0
2018-Aug-04 01:30N 47°34' W 052°42'0 0.0
2018-Aug-04 01:00N 47°34' W 052°42'0 0.0
2018-Aug-04 00:29N 47°34' W 052°42'0 0.0
2018-Aug-03 23:58N 47°34' W 052°42'0 0.0
2018-Aug-03 23:26N 47°34' W 052°42'0 0.0
2018-Aug-03 22:56N 47°34' W 052°42'0 0.0
2018-Aug-03 22:30N 47°34' W 052°42'0 0.0
2018-Aug-03 21:59N 47°34' W 052°42'0 0.0
2018-Aug-03 21:28N 47°34' W 052°42'0 0.0
2018-Aug-03 20:56N 47°34' W 052°42'0 0.0
2018-Aug-03 20:28N 47°34' W 052°42'2 3.8
2018-Aug-03 20:00N 47°34' W 052°39'611.9
2018-Aug-03 19:29N 47°32' W 052°31'612.3
2018-Aug-03 18:58N 47°30' W 052°22'  
Track history (hours):
 
Tides and Currents Weather Stations Pressure Air Temp Water Temp Dewpoint Dewpoint Depression Visibility Wind Speed Wind Dir Waves Ship Positions

Atlantic Griffon

Last reported at 2018-Aug-13 18:47 UTC. Time now 2018-Aug-14 13:46 UTC.
Position N 47°29' W 052°16'.

Length 86 m; draft 6 m.

Type: Ship. MMSI: 316013910.

Date/timePositionNaut miles runAvg speedWind from/ knotsBaromVisibWave heightAir tempDewpointWater temp
2018-Aug-13 18:47N 47°29' W 052°16'412.7
2018-Aug-13 18:29N 47°30' W 052°21'712.9
2018-Aug-13 17:58N 47°32' W 052°31'612.1
2018-Aug-13 17:28N 47°34' W 052°40'2 3.4
2018-Aug-13 16:57N 47°34' W 052°42'0 0.0
2018-Aug-13 16:30N 47°34' W 052°42'0 0.0
2018-Aug-13 15:55N 47°34' W 052°42'0 0.0
2018-Aug-13 15:26N 47°34' W 052°42'0 0.0
2018-Aug-13 15:00N 47°34' W 052°42'0 0.0
2018-Aug-13 14:29N 47°34' W 052°42'0 0.0
2018-Aug-13 13:58N 47°34' W 052°42'0 0.0
2018-Aug-13 13:26N 47°34' W 052°42'0 0.0
2018-Aug-13 12:57N 47°34' W 052°42'0 0.0
2018-Aug-13 12:26N 47°34' W 052°42'0 0.0
2018-Aug-13 11:56N 47°34' W 052°42'0 0.0
2018-Aug-13 11:28N 47°34' W 052°42'0 0.0
2018-Aug-13 10:59N 47°34' W 052°42'0 0.0
2018-Aug-13 10:29N 47°34' W 052°42'0 0.0
2018-Aug-13 09:58N 47°34' W 052°42'0 0.0
2018-Aug-13 09:28N 47°34' W 052°42'0 0.0
2018-Aug-13 08:53N 47°34' W 052°42'0 0.0
2018-Aug-13 08:27N 47°34' W 052°42'0 0.0
2018-Aug-13 07:56N 47°34' W 052°42'0 0.0
2018-Aug-13 07:26N 47°34' W 052°42'0 0.0
2018-Aug-13 07:00N 47°34' W 052°42'0 0.0
2018-Aug-13 06:29N 47°34' W 052°42'0 0.0
2018-Aug-13 05:59N 47°34' W 052°42'0 0.0
2018-Aug-13 05:28N 47°34' W 052°42'0 0.0
2018-Aug-13 04:57N 47°34' W 052°42'0 0.0
2018-Aug-13 04:26N 47°34' W 052°42'0 0.0
2018-Aug-13 03:56N 47°34' W 052°42'0 0.0
2018-Aug-13 03:30N 47°34' W 052°42'0 0.0
2018-Aug-13 02:59N 47°34' W 052°42'0 0.0
2018-Aug-13 02:29N 47°34' W 052°42'0 0.0
2018-Aug-13 01:58N 47°34' W 052°42'0 0.0
2018-Aug-13 01:22N 47°34' W 052°42'0 0.0
2018-Aug-13 00:57N 47°34' W 052°42'0 0.0
2018-Aug-13 00:26N 47°34' W 052°42'0 0.0
2018-Aug-12 23:59N 47°34' W 052°42'0 0.0
2018-Aug-12 23:28N 47°34' W 052°42'0 0.0
2018-Aug-12 22:57N 47°34' W 052°42'0 0.0
2018-Aug-12 22:27N 47°34' W 052°42'0 0.0
2018-Aug-12 21:56N 47°34' W 052°42'0 0.0
2018-Aug-12 21:30N 47°34' W 052°42'0 0.0
2018-Aug-12 21:00N 47°34' W 052°42'0 0.0
2018-Aug-12 20:28N 47°34' W 052°42'0 0.0
2018-Aug-12 19:56N 47°34' W 052°42'0 0.0
2018-Aug-12 19:30N 47°34' W 052°42'0 0.0
2018-Aug-12 18:59N 47°34' W 052°42'0 0.0
2018-Aug-12 18:28N 47°34' W 052°42'0 0.0
2018-Aug-12 17:57N 47°34' W 052°42'0 0.0
2018-Aug-12 17:26N 47°34' W 052°42'0 0.0
2018-Aug-12 17:00N 47°34' W 052°42'0 0.0
2018-Aug-12 16:28N 47°34' W 052°42'0 0.0
2018-Aug-12 15:57N 47°34' W 052°42'0 0.0
2018-Aug-12 15:30N 47°34' W 052°42'0 0.0
2018-Aug-12 14:59N 47°34' W 052°42'0 0.0
2018-Aug-12 10:49N 47°34' W 052°42'0 0.1
2018-Aug-12 10:30N 47°34' W 052°42'3 5.9
2018-Aug-12 09:58N 47°34' W 052°37'611.9
2018-Aug-12 09:28N 47°31' W 052°29'  
2018-Aug-09 01:25N 47°27' W 052°10'511.8
2018-Aug-09 00:58N 47°29' W 052°18'611.5
2018-Aug-09 00:26N 47°31' W 052°26'511.2
2018-Aug-09 00:00N 47°33' W 052°33'5 9.9
2018-Aug-08 23:30N 47°34' W 052°40'1 2.5
2018-Aug-08 22:59N 47°34' W 052°42'0 0.0
2018-Aug-08 22:27N 47°34' W 052°42'0 0.0
2018-Aug-08 21:56N 47°34' W 052°42'0 0.0
2018-Aug-08 21:29N 47°34' W 052°42'0 0.0
2018-Aug-08 20:57N 47°34' W 052°42'0 0.0
2018-Aug-08 20:29N 47°34' W 052°42'0 0.0
2018-Aug-08 19:56N 47°34' W 052°42'0 0.0
2018-Aug-08 19:26N 47°34' W 052°42'0 0.0
2018-Aug-08 18:57N 47°34' W 052°42'0 0.0
2018-Aug-08 18:26N 47°34' W 052°42'0 0.0
2018-Aug-08 17:58N 47°34' W 052°42'0 0.0
2018-Aug-08 17:27N 47°34' W 052°42'0 0.0
2018-Aug-08 16:47N 47°34' W 052°42'0 0.0
2018-Aug-08 16:27N 47°34' W 052°42'0 0.0
2018-Aug-08 15:55N 47°34' W 052°42'0 0.0
2018-Aug-08 15:29N 47°34' W 052°42'0 0.0
2018-Aug-08 14:58N 47°34' W 052°42'0 0.0
2018-Aug-08 14:28N 47°34' W 052°42'0 0.0
2018-Aug-08 13:56N 47°34' W 052°42'0 0.0
2018-Aug-08 13:25N 47°34' W 052°42'0 0.0
2018-Aug-08 13:00N 47°34' W 052°42'0 0.0
2018-Aug-08 12:29N 47°34' W 052°42'0 0.0
2018-Aug-08 11:48N 47°34' W 052°42'0 0.0
2018-Aug-08 11:28N 47°34' W 052°42'0 0.0
2018-Aug-08 10:57N 47°34' W 052°42'0 0.0
2018-Aug-08 10:26N 47°34' W 052°42'0 0.0
2018-Aug-08 09:59N 47°34' W 052°42'0 0.0
2018-Aug-08 09:28N 47°34' W 052°42'0 0.0
2018-Aug-08 08:57N 47°34' W 052°42'0 0.0
2018-Aug-08 08:26N 47°34' W 052°42'0 0.0
2018-Aug-08 07:56N 47°34' W 052°42'0 0.0
2018-Aug-08 07:30N 47°34' W 052°42'0 0.0
2018-Aug-08 07:00N 47°34' W 052°42'0 0.0
2018-Aug-08 06:29N 47°34' W 052°42'0 0.0
2018-Aug-08 05:59N 47°34' W 052°42'0 0.0
2018-Aug-08 05:28N 47°34' W 052°42'0 0.0
2018-Aug-08 04:58N 47°34' W 052°42'0 0.0
2018-Aug-08 04:27N 47°34' W 052°42'0 0.0
2018-Aug-08 03:56N 47°34' W 052°42'0 0.0
2018-Aug-08 03:26N 47°34' W 052°42'0 0.0
2018-Aug-08 03:00N 47°34' W 052°42'0 0.0
2018-Aug-08 02:30N 47°34' W 052°42'0 0.0
2018-Aug-08 01:59N 47°34' W 052°42'0 0.0
2018-Aug-08 01:28N 47°34' W 052°42'0 0.0
2018-Aug-08 00:57N 47°34' W 052°42'0 0.1
2018-Aug-08 00:25N 47°34' W 052°42'3 6.6
2018-Aug-07 23:59N 47°34' W 052°38'612.2
2018-Aug-07 23:29N 47°33' W 052°29'52 2.1
2018-Aug-06 23:23N 47°14' W 051°17'5213.3
2018-Aug-06 19:27N 47°32' W 052°30'712.6
2018-Aug-06 18:55N 47°34' W 052°40'2 4.0
2018-Aug-06 18:30N 47°34' W 052°42'0 0.0
2018-Aug-06 17:59N 47°34' W 052°42'0 0.0
2018-Aug-06 17:29N 47°34' W 052°42'0 0.0
2018-Aug-06 16:58N 47°34' W 052°42'0 0.0
2018-Aug-06 16:28N 47°34' W 052°42'0 0.0
2018-Aug-06 15:57N 47°34' W 052°42'0 0.0
2018-Aug-06 15:26N 47°34' W 052°42'0 0.4
2018-Aug-06 14:59N 47°34' W 052°42'0 0.0
2018-Aug-06 14:28N 47°34' W 052°42'0 0.0
2018-Aug-06 13:58N 47°34' W 052°42'0 0.0
2018-Aug-06 13:27N 47°34' W 052°42'0 0.0
2018-Aug-06 12:57N 47°34' W 052°42'0 0.0
2018-Aug-06 12:26N 47°34' W 052°42'0 0.0
2018-Aug-06 11:59N 47°34' W 052°42'0 0.0
2018-Aug-06 11:29N 47°34' W 052°42'0 0.0
2018-Aug-06 10:56N 47°34' W 052°42'0 0.0
2018-Aug-06 10:28N 47°34' W 052°42'0 0.0
2018-Aug-06 09:57N 47°34' W 052°42'0 0.0
2018-Aug-06 09:30N 47°34' W 052°42'0 0.0
2018-Aug-06 08:55N 47°34' W 052°42'0 0.0
2018-Aug-06 08:29N 47°34' W 052°42'0 0.0
2018-Aug-06 07:59N 47°34' W 052°42'0 0.0
2018-Aug-06 07:18N 47°34' W 052°42'0 0.0
2018-Aug-06 06:58N 47°34' W 052°42'0 0.0
2018-Aug-06 06:27N 47°34' W 052°42'0 0.0
2018-Aug-06 05:57N 47°34' W 052°42'0 0.0
2018-Aug-06 05:26N 47°34' W 052°42'0 0.0
2018-Aug-06 05:00N 47°34' W 052°42'0 0.0
2018-Aug-06 04:30N 47°34' W 052°42'0 0.0
2018-Aug-06 04:00N 47°34' W 052°42'0 0.0
2018-Aug-06 03:30N 47°34' W 052°42'0 0.0
2018-Aug-06 03:00N 47°34' W 052°42'0 0.0
2018-Aug-06 02:29N 47°34' W 052°42'0 0.0
2018-Aug-06 01:59N 47°34' W 052°42'0 0.0
2018-Aug-06 01:28N 47°34' W 052°42'0 0.0
2018-Aug-06 00:58N 47°34' W 052°42'0 0.0
2018-Aug-06 00:27N 47°34' W 052°42'0 0.0
2018-Aug-05 23:56N 47°34' W 052°42'0 0.0
2018-Aug-05 23:26N 47°34' W 052°42'0 0.0
2018-Aug-05 23:00N 47°34' W 052°42'0 0.0
2018-Aug-05 22:29N 47°34' W 052°42'0 0.0
2018-Aug-05 21:59N 47°34' W 052°42'0 0.0
2018-Aug-05 21:19N 47°34' W 052°42'0 0.0
2018-Aug-05 20:59N 47°34' W 052°42'0 0.0
2018-Aug-05 20:28N 47°34' W 052°42'0 0.0
2018-Aug-05 19:57N 47°34' W 052°42'0 0.0
2018-Aug-05 19:26N 47°34' W 052°42'0 0.0
2018-Aug-05 19:00N 47°34' W 052°42'0 0.0
2018-Aug-05 18:29N 47°34' W 052°42'0 0.0
2018-Aug-05 17:58N 47°34' W 052°42'0 0.0
2018-Aug-05 17:28N 47°34' W 052°42'0 0.5
2018-Aug-05 16:58N 47°34' W 052°42'0 0.0
2018-Aug-05 16:27N 47°34' W 052°42'0 0.0
2018-Aug-05 15:57N 47°34' W 052°42'0 0.0
2018-Aug-05 15:30N 47°34' W 052°42'0 0.0
2018-Aug-05 14:59N 47°34' W 052°42'0 0.0
2018-Aug-05 14:26N 47°34' W 052°42'0 0.0
2018-Aug-05 13:30N 47°34' W 052°42'0 0.0
2018-Aug-05 12:59N 47°34' W 052°42'0 0.0
2018-Aug-05 12:29N 47°34' W 052°42'0 0.0
2018-Aug-05 11:58N 47°34' W 052°42'0 0.0
2018-Aug-05 11:28N 47°34' W 052°42'0 0.0
2018-Aug-05 10:58N 47°34' W 052°42'0 0.0
2018-Aug-05 10:28N 47°34' W 052°42'0 0.1
2018-Aug-05 09:57N 47°34' W 052°42'0 0.8
2018-Aug-05 09:26N 47°34' W 052°42'0 0.0
2018-Aug-05 08:56N 47°34' W 052°42'0 0.0
2018-Aug-05 08:30N 47°34' W 052°42'0 0.0
2018-Aug-05 08:00N 47°34' W 052°42'0 0.0
2018-Aug-05 07:28N 47°34' W 052°42'0 0.0
2018-Aug-05 06:58N 47°34' W 052°42'0 0.0
2018-Aug-05 06:27N 47°34' W 052°42'0 0.0
2018-Aug-05 05:57N 47°34' W 052°42'0 0.0
2018-Aug-05 05:26N 47°34' W 052°42'0 0.0
2018-Aug-05 04:56N 47°34' W 052°42'0 0.0
2018-Aug-05 04:30N 47°34' W 052°42'0 0.0
2018-Aug-05 03:58N 47°34' W 052°42'0 0.0
2018-Aug-05 03:27N 47°34' W 052°42'0 0.0
2018-Aug-05 02:56N 47°34' W 052°42'0 0.0
2018-Aug-05 02:25N 47°34' W 052°42'0 0.0
2018-Aug-05 02:00N 47°34' W 052°42'0 0.0
2018-Aug-05 01:30N 47°34' W 052°42'0 0.0
2018-Aug-05 00:59N 47°34' W 052°42'0 0.0
2018-Aug-05 00:29N 47°34' W 052°42'0 0.0
2018-Aug-04 23:58N 47°34' W 052°42'0 0.0
2018-Aug-04 23:27N 47°34' W 052°42'0 0.0
2018-Aug-04 22:57N 47°34' W 052°42'0 0.0
2018-Aug-04 22:26N 47°34' W 052°42'0 0.0
2018-Aug-04 22:00N 47°34' W 052°42'0 0.0
2018-Aug-04 21:27N 47°34' W 052°42'0 0.0
2018-Aug-04 20:56N 47°34' W 052°42'0 0.0
2018-Aug-04 20:27N 47°34' W 052°42'0 0.0
2018-Aug-04 20:00N 47°34' W 052°42'0 0.0
2018-Aug-04 19:29N 47°34' W 052°42'0 0.0
2018-Aug-04 18:57N 47°34' W 052°42'0 0.0
2018-Aug-04 18:26N 47°34' W 052°42'0 0.0
2018-Aug-04 18:00N 47°34' W 052°42'0 0.0
2018-Aug-04 17:18N 47°34' W 052°42'0 0.0
2018-Aug-04 16:57N 47°34' W 052°42'0 0.0
2018-Aug-04 16:29N 47°34' W 052°42'0 0.0
2018-Aug-04 15:57N 47°34' W 052°42'0 0.0
2018-Aug-04 15:30N 47°34' W 052°42'0 0.0
2018-Aug-04 15:00N 47°34' W 052°42'0 0.0
2018-Aug-04 14:27N 47°34' W 052°42'0 0.4
2018-Aug-04 13:56N 47°34' W 052°42'0 0.2
2018-Aug-04 13:30N 47°34' W 052°42'0 0.0
2018-Aug-04 12:55N 47°34' W 052°42'0 0.0
2018-Aug-04 12:27N 47°34' W 052°42'0 0.0
2018-Aug-04 11:52N 47°34' W 052°42'0 0.0
2018-Aug-04 11:28N 47°34' W 052°42'0 0.0
2018-Aug-04 10:59N 47°34' W 052°42'0 0.0
2018-Aug-04 10:28N 47°34' W 052°42'0 0.0
2018-Aug-04 09:59N 47°34' W 052°42'0 0.0
2018-Aug-04 09:25N 47°34' W 052°42'0 0.0
2018-Aug-04 09:00N 47°34' W 052°42'0 0.0
2018-Aug-04 08:28N 47°34' W 052°42'0 0.0
2018-Aug-04 07:56N 47°34' W 052°42'0 0.0
2018-Aug-04 07:29N 47°34' W 052°42'0 0.0
2018-Aug-04 06:58N 47°34' W 052°42'0 0.0
2018-Aug-04 06:26N 47°34' W 052°42'0 0.0
2018-Aug-04 06:00N 47°34' W 052°42'0 0.0
2018-Aug-04 05:28N 47°34' W 052°42'0 0.0
2018-Aug-04 04:57N 47°34' W 052°42'0 0.0
2018-Aug-04 04:30N 47°34' W 052°42'0 0.0
2018-Aug-04 03:58N 47°34' W 052°42'0 0.0
2018-Aug-04 03:28N 47°34' W 052°42'0 0.0
2018-Aug-04 02:58N 47°34' W 052°42'0 0.0
2018-Aug-04 02:26N 47°34' W 052°42'0 0.0
2018-Aug-04 01:56N 47°34' W 052°42'0 0.0
2018-Aug-04 01:30N 47°34' W 052°42'0 0.0
2018-Aug-04 01:00N 47°34' W 052°42'0 0.0
2018-Aug-04 00:29N 47°34' W 052°42'0 0.0
2018-Aug-03 23:58N 47°34' W 052°42'0 0.0
2018-Aug-03 23:26N 47°34' W 052°42'0 0.0
2018-Aug-03 22:56N 47°34' W 052°42'0 0.0
2018-Aug-03 22:30N 47°34' W 052°42'0 0.0
2018-Aug-03 21:59N 47°34' W 052°42'0 0.0
2018-Aug-03 21:28N 47°34' W 052°42'0 0.0
2018-Aug-03 20:56N 47°34' W 052°42'0 0.0
2018-Aug-03 20:28N 47°34' W 052°42'2 3.8
2018-Aug-03 20:00N 47°34' W 052°39'611.9
2018-Aug-03 19:29N 47°32' W 052°31'612.3
2018-Aug-03 18:58N 47°30' W 052°22'  

Dump ship's entire track history